Time;durP1;ratioP1;P1;durP2;ratioP2;P2;SDS_P1;SDS_P2;PMS_P1;PMS_P2;Temp;Humidity;BMP_temperature;BMP_pressure;BME280_temperature;BME280_humidity;BME280_pressure;Samples;Min_cycle;Max_cycle;Signal;HPM_P1;HPM_P2
2022/10/13 00:00:28;;;;;;;3.17;2.30;;;;;;;18.82;50.23;101881.03;5126087;28;20038;-53
2022/10/13 00:02:53;;;;;;;3.38;2.35;;;;;;;18.82;50.64;101874.78;5126243;28;20089;-53
2022/10/13 00:05:19;;;;;;;3.22;2.47;;;;;;;18.81;50.79;101871.22;5126257;28;20085;-52
2022/10/13 00:07:44;;;;;;;4.28;2.50;;;;;;;18.82;50.51;101869.38;5140536;27;20023;-54
2022/10/13 00:10:09;;;;;;;2.33;1.98;;;;;;;18.80;50.46;101855.22;5146601;27;20041;-52
2022/10/13 00:12:36;;;;;;;2.60;1.95;;;;;;;18.71;50.50;101843.47;5146733;27;20051;-53
2022/10/13 00:15:04;;;;;;;2.85;2.28;;;;;;;18.72;50.48;101847.84;5126042;28;20028;-55
2022/10/13 00:17:29;;;;;;;2.42;2.22;;;;;;;18.79;50.65;101857.06;5125971;28;20047;-53
2022/10/13 00:19:54;;;;;;;3.53;2.22;;;;;;;18.78;50.71;101860.78;5125905;28;20441;-51
2022/10/13 00:22:20;;;;;;;3.28;2.40;;;;;;;18.73;50.61;101836.97;5125537;28;20027;-53
2022/10/13 00:24:50;;;;;;;4.43;2.80;;;;;;;18.72;50.44;101837.09;5125901;28;20035;-52
2022/10/13 00:27:15;;;;;;;4.25;2.65;;;;;;;18.77;50.25;101842.88;5144438;27;20387;-54
2022/10/13 00:29:40;;;;;;;3.45;2.30;;;;;;;18.76;50.56;101854.66;5146175;27;20030;-51
2022/10/13 00:32:05;;;;;;;3.42;2.28;;;;;;;18.76;50.41;101857.34;5146100;27;20026;-54
2022/10/13 00:34:31;;;;;;;3.47;2.65;;;;;;;18.74;50.48;101848.59;5146370;27;20015;-53
2022/10/13 00:36:56;;;;;;;4.28;2.38;;;;;;;18.76;50.34;101848.44;5145736;27;20038;-52
2022/10/13 00:39:21;;;;;;;3.05;2.30;;;;;;;18.76;50.29;101843.03;5146266;27;20479;-55
2022/10/13 00:41:46;;;;;;;4.18;2.70;;;;;;;18.75;50.29;101844.03;5126890;27;20027;-50
2022/10/13 00:44:49;;;;;;;3.28;2.70;;;;;;;18.74;50.54;101840.50;5125675;28;20083;-51
2022/10/13 00:47:14;;;;;;;2.90;2.20;;;;;;;18.61;50.33;101816.53;5125251;28;20034;-53
2022/10/13 00:49:40;;;;;;;3.10;2.40;;;;;;;18.73;50.44;101839.66;5125149;28;20029;-54
2022/10/13 00:52:05;;;;;;;3.38;2.15;;;;;;;18.72;50.26;101832.53;5124648;28;20022;-52
2022/10/13 00:54:30;;;;;;;2.88;2.30;;;;;;;18.72;50.25;101831.69;5125177;28;20404;-52
2022/10/13 00:56:56;;;;;;;2.58;2.22;;;;;;;18.71;50.29;101828.16;5140818;27;20035;-53
2022/10/13 00:59:26;;;;;;;2.60;2.15;;;;;;;18.71;50.26;101824.63;5145668;27;20023;-54
2022/10/13 01:01:51;;;;;;;3.40;2.47;;;;;;;18.70;50.44;101822.94;5145267;27;20552;-51
2022/10/13 01:04:18;;;;;;;2.85;2.03;;;;;;;18.69;50.51;101818.47;5145591;27;20100;-52
2022/10/13 01:06:44;;;;;;;3.67;2.60;;;;;;;18.69;50.29;101816.69;5143802;27;20027;-55
2022/10/13 01:09:09;;;;;;;2.90;2.55;;;;;;;18.68;50.17;101824.88;5144437;27;20403;-52
2022/10/13 01:11:57;;;;;;;3.20;2.10;;;;;;;18.68;50.26;101817.63;5145427;27;20027;-54
2022/10/13 01:14:41;;;;;;;2.55;2.30;;;;;;;18.67;50.28;101815.94;5144410;27;20550;-54
2022/10/13 01:17:27;;;;;;;2.97;2.30;;;;;;;18.66;50.26;101814.25;5144114;27;20033;-54
2022/10/13 01:20:13;;;;;;;3.30;2.47;;;;;;;18.67;50.45;101815.09;5144331;27;20091;-54
2022/10/13 01:23:11;;;;;;;4.07;2.50;;;;;;;18.66;50.45;101819.63;5144829;27;20031;-52
2022/10/13 01:25:51;;;;;;;2.85;2.35;;;;;;;18.66;50.48;101816.09;5141315;27;20019;-53
2022/10/13 01:28:25;;;;;;;3.75;2.80;;;;;;;18.65;50.39;101817.09;5123406;28;20027;-53
2022/10/13 01:31:03;;;;;;;3.55;2.45;;;;;;;18.62;50.29;101803.91;5124450;28;20034;-56
2022/10/13 01:33:41;;;;;;;3.03;2.30;;;;;;;18.64;50.11;101805.44;5124527;28;20024;-55
2022/10/13 01:36:27;;;;;;;2.60;2.40;;;;;;;18.64;50.31;101809.97;5123055;28;20023;-55
2022/10/13 01:38:58;;;;;;;2.63;2.40;;;;;;;18.63;50.36;101816.38;5123356;28;20043;-54
2022/10/13 01:41:36;;;;;;;3.13;2.33;;;;;;;18.58;50.25;101805.19;5139059;27;20054;-55
2022/10/13 01:44:02;;;;;;;3.47;2.90;;;;;;;18.62;50.28;101804.75;5126682;27;20048;-55
2022/10/13 01:46:31;;;;;;;2.75;2.40;;;;;;;18.62;50.35;101809.28;5143886;27;20035;-53
2022/10/13 01:48:59;;;;;;;3.25;2.30;;;;;;;18.61;50.38;101803.06;5143852;27;20027;-52
2022/10/13 01:51:25;;;;;;;2.50;2.00;;;;;;;18.58;50.46;101800.66;5125981;27;20077;-54
2022/10/13 01:53:51;;;;;;;3.78;2.67;;;;;;;18.61;50.20;101803.06;5143441;27;20043;-54
2022/10/13 01:56:16;;;;;;;2.65;2.08;;;;;;;18.58;50.26;101797.13;5132256;27;20027;-52
2022/10/13 01:58:41;;;;;;;2.78;2.15;;;;;;;18.56;50.45;101791.84;5123923;28;20023;-54
2022/10/13 02:01:22;;;;;;;3.30;2.35;;;;;;;18.60;50.44;101798.66;5123823;28;20027;-56
2022/10/13 02:03:57;;;;;;;3.28;2.55;;;;;;;18.58;50.43;101792.56;5124006;28;20504;-53
2022/10/13 02:06:34;;;;;;;2.92;2.30;;;;;;;18.59;50.19;101796.09;5126759;28;20045;-55
2022/10/13 02:09:09;;;;;;;2.35;1.90;;;;;;;18.59;50.45;101793.41;5144859;27;20483;-51
2022/10/13 02:11:34;;;;;;;2.67;1.95;;;;;;;18.58;50.04;101789.88;5129924;28;20051;-49
2022/10/13 02:14:09;;;;;;;3.08;2.30;;;;;;;18.58;50.68;101791.72;5124285;28;20031;-51
2022/10/13 02:16:38;;;;;;;2.85;2.35;;;;;;;18.57;50.29;101790.88;5122871;28;20024;-52
2022/10/13 02:19:04;;;;;;;;;;;;;;;18.58;50.32;101789.03;5123405;28;20024;-53
2022/10/13 02:21:29;;;;;;;3.03;2.20;;;;;;;18.57;50.31;101784.66;5122213;28;19958;-55
2022/10/13 02:23:54;;;;;;;3.30;2.30;;;;;;;18.56;50.45;101788.31;5124007;28;20020;-54
2022/10/13 02:26:20;;;;;;;2.70;2.03;;;;;;;18.52;50.50;101768.94;5124338;28;20038;-55
2022/10/13 02:28:46;;;;;;;2.97;2.35;;;;;;;18.55;50.20;101787.47;5123805;28;20057;-54
2022/10/13 02:31:11;;;;;;;3.17;2.20;;;;;;;18.54;50.48;101776.84;5123800;28;20036;-49
2022/10/13 02:33:37;;;;;;;3.53;2.45;;;;;;;18.53;50.43;101769.78;5123738;28;20053;-55
2022/10/13 02:36:02;;;;;;;2.90;2.28;;;;;;;18.54;50.14;101780.38;5123722;28;20031;-54
2022/10/13 02:38:27;;;;;;;4.03;2.50;;;;;;;18.54;50.21;101769.63;5123896;28;20643;-50
2022/10/13 02:40:53;;;;;;;2.47;2.28;;;;;;;18.50;50.38;101760.13;5134647;28;20039;-55
2022/10/13 02:43:19;;;;;;;2.85;2.20;;;;;;;18.53;50.50;101767.06;5144470;27;20015;-54
2022/10/13 02:45:44;;;;;;;2.50;2.30;;;;;;;18.52;50.17;101760.84;5144291;27;20059;-53
2022/10/13 02:48:09;;;;;;;3.38;2.33;;;;;;;18.52;50.48;101763.53;5144384;27;20038;-55
2022/10/13 02:50:34;;;;;;;2.85;2.20;;;;;;;18.52;50.32;101768.06;5144146;27;20083;-52
2022/10/13 02:53:00;;;;;;;2.72;2.35;;;;;;;18.52;50.64;101759.97;5145743;27;20051;-52
2022/10/13 02:55:25;;;;;;;2.70;2.13;;;;;;;18.49;50.43;101755.75;5142909;27;20028;-51
2022/10/13 02:57:50;;;;;;;2.78;2.10;;;;;;;18.43;50.49;101745.53;5127263;28;20027;-51
2022/10/13 03:00:15;;;;;;;6.82;2.65;;;;;;;18.43;50.31;101750.91;5134507;27;20077;-53
2022/10/13 03:02:41;;;;;;;2.88;2.25;;;;;;;18.49;50.25;101758.44;5147874;27;20027;-53
2022/10/13 03:05:07;;;;;;;3.47;2.17;;;;;;;18.49;50.25;101751.19;5148306;27;20075;-54
2022/10/13 03:07:32;;;;;;;3.45;2.47;;;;;;;18.49;50.39;101751.19;5147660;27;20057;-55
2022/10/13 03:09:57;;;;;;;2.63;2.40;;;;;;;18.49;50.12;101731.50;5147648;27;20168;-51
2022/10/13 03:12:23;;;;;;;3.03;2.28;;;;;;;18.48;50.21;101721.75;5147600;27;20035;-53
2022/10/13 03:14:48;;;;;;;2.95;2.13;;;;;;;18.48;50.24;101724.44;5147978;27;20023;-53
2022/10/13 03:17:13;;;;;;;2.75;2.20;;;;;;;18.47;50.20;101739.72;5147830;27;20019;-55
2022/10/13 03:19:38;;;;;;;3.75;2.38;;;;;;;18.47;50.58;101737.03;5147817;27;20110;-51
2022/10/13 03:22:04;;;;;;;2.58;2.20;;;;;;;18.46;50.47;101726.41;5147153;27;20034;-53
2022/10/13 03:24:29;;;;;;;2.45;2.05;;;;;;;18.46;50.19;101735.31;5147851;27;20023;-53
2022/10/13 03:26:54;;;;;;;2.17;1.98;;;;;;;18.44;50.43;101729.25;5146840;27;20123;-53
2022/10/13 03:29:21;;;;;;;3.47;2.50;;;;;;;18.45;50.47;101722.88;5147460;27;20595;-56
2022/10/13 03:31:46;;;;;;;3.10;2.10;;;;;;;18.44;50.30;101723.03;5147306;27;20019;-52
2022/10/13 03:34:12;;;;;;;2.85;2.30;;;;;;;18.41;50.04;101718.75;5147521;27;20031;-53
2022/10/13 03:36:38;;;;;;;2.53;2.20;;;;;;;18.42;50.50;101712.38;5129511;27;20096;-51
2022/10/13 03:39:03;;;;;;;2.55;2.30;;;;;;;18.39;50.36;101701.94;5126952;28;20057;-53
2022/10/13 03:41:28;;;;;;;2.42;2.20;;;;;;;18.43;50.35;101705.16;5126603;28;20023;-54
2022/10/13 03:43:54;;;;;;;3.13;2.50;;;;;;;18.42;50.44;101709.69;5126663;28;20023;-51
2022/10/13 03:46:19;;;;;;;2.90;2.20;;;;;;;18.42;50.12;101706.16;5126640;28;20028;-53
2022/10/13 03:48:46;;;;;;;2.25;1.90;;;;;;;18.41;50.51;101704.47;5126677;27;20031;-53
2022/10/13 03:51:21;;;;;;;2.92;2.42;;;;;;;18.41;50.25;101713.38;5125990;28;20032;-55
2022/10/13 03:53:47;;;;;;;2.67;2.30;;;;;;;18.41;50.29;101709.84;5126325;28;20101;-50
2022/10/13 03:56:19;;;;;;;3.45;2.35;;;;;;;18.40;50.30;101703.63;5126614;28;20032;-55
2022/10/13 03:58:44;;;;;;;2.90;2.28;;;;;;;18.38;50.37;101693.97;5126145;28;20095;-54
2022/10/13 04:01:11;;;;;;;2.53;2.13;;;;;;;18.40;50.53;101702.78;5126209;28;20596;-53
2022/10/13 04:03:37;;;;;;;4.65;2.20;;;;;;;18.39;50.29;101684.88;5124507;28;20016;-56
2022/10/13 04:06:03;;;;;;;2.65;2.08;;;;;;;18.40;50.27;101690.16;5128169;27;20059;-54
2022/10/13 04:08:30;;;;;;;3.28;2.40;;;;;;;18.40;50.40;101708.16;5127875;27;20030;-56
2022/10/13 04:11:04;;;;;;;2.67;1.90;;;;;;;18.40;50.47;101687.47;5135209;27;20050;-53
2022/10/13 04:13:30;;;;;;;3.15;2.58;;;;;;;18.41;50.39;101686.47;5141702;27;20070;-56
2022/10/13 04:16:00;;;;;;;2.72;2.20;;;;;;;18.41;50.76;101694.53;5138635;27;20027;-54
2022/10/13 04:18:25;;;;;;;2.83;1.90;;;;;;;18.41;50.67;101693.69;5146644;27;20438;-52
2022/10/13 04:20:50;;;;;;;3.30;2.38;;;;;;;18.40;50.37;101690.16;5145666;27;20031;-53
2022/10/13 04:23:15;;;;;;;4.90;2.25;;;;;;;18.40;50.60;101683.91;5144001;27;20024;-56
2022/10/13 04:25:41;;;;;;;3.42;2.42;;;;;;;18.40;50.06;101692.84;5125419;28;20034;-55
2022/10/13 04:28:06;;;;;;;2.67;2.10;;;;;;;18.41;50.51;101682.91;5125742;28;20053;-54
2022/10/13 04:30:32;;;;;;;3.30;2.13;;;;;;;18.41;50.43;101686.47;5125127;28;20028;-56
2022/10/13 04:32:58;;;;;;;2.72;2.00;;;;;;;18.34;50.53;101679.09;5125543;28;20562;-51
2022/10/13 04:35:23;;;;;;;3.05;2.17;;;;;;;18.40;50.17;101697.38;5125677;27;20050;-55
2022/10/13 04:37:48;;;;;;;3.33;2.08;;;;;;;18.40;50.52;101687.47;5125342;28;20016;-55
2022/10/13 04:40:14;;;;;;;4.82;2.72;;;;;;;18.38;50.65;101680.50;5126144;27;20597;-53
2022/10/13 04:42:39;;;;;;;2.55;2.00;;;;;;;18.41;50.50;101682.91;5145913;27;20023;-57
2022/10/13 04:45:05;;;;;;;2.42;2.22;;;;;;;18.41;50.68;101685.63;5145958;27;20023;-54
2022/10/13 04:47:30;;;;;;;2.55;2.08;;;;;;;18.41;50.64;101688.31;5145937;27;20075;-54
2022/10/13 04:49:56;;;;;;;3.78;2.00;;;;;;;18.41;50.67;101697.22;5145484;27;20038;-54
2022/10/13 04:52:21;;;;;;;2.45;2.17;;;;;;;18.41;50.51;101697.22;5144790;27;20031;-55
2022/10/13 04:54:46;;;;;;;2.80;1.92;;;;;;;18.41;51.08;101691.00;5145190;27;20155;-54
2022/10/13 04:57:11;;;;;;;2.42;2.10;;;;;;;18.41;50.37;101689.16;5145567;27;20035;-55
2022/10/13 04:59:37;;;;;;;2.42;2.10;;;;;;;18.42;51.03;101684.59;5145461;27;20030;-56
2022/10/13 05:02:02;;;;;;;2.38;2.17;;;;;;;18.40;50.93;101681.22;5145506;27;20019;-53
2022/10/13 05:04:27;;;;;;;3.72;2.20;;;;;;;18.40;50.89;101675.84;5144817;27;20027;-53
2022/10/13 05:06:53;;;;;;;2.53;2.03;;;;;;;18.41;50.81;101670.31;5128979;27;20065;-56
2022/10/13 05:09:18;;;;;;;2.85;2.33;;;;;;;18.37;50.98;101652.75;5144977;27;20061;-55
2022/10/13 05:11:43;;;;;;;3.05;2.08;;;;;;;18.42;50.71;101649.59;5145152;27;20083;-53
2022/10/13 05:14:08;;;;;;;3.40;2.30;;;;;;;18.41;50.96;101648.75;5144728;27;20548;-55
2022/10/13 05:16:34;;;;;;;2.45;2.17;;;;;;;18.41;51.34;101669.47;5124142;27;20107;-56
2022/10/13 05:18:59;;;;;;;2.38;2.10;;;;;;;18.42;50.91;101666.59;5131524;27;20023;-52
2022/10/13 05:21:26;;;;;;;2.65;2.22;;;;;;;18.43;51.20;101680.91;5144716;27;20019;-54
2022/10/13 05:23:54;;;;;;;2.78;2.13;;;;;;;18.40;51.21;101686.63;5135925;27;20080;-56
2022/10/13 05:26:19;;;;;;;2.78;2.35;;;;;;;18.42;51.20;101681.91;5124870;28;20030;-54
2022/10/13 05:28:45;;;;;;;3.38;2.33;;;;;;;18.42;50.86;101688.16;5124380;28;20083;-51
2022/10/13 05:31:18;;;;;;;3.85;2.30;;;;;;;18.38;51.44;101667.03;5124319;28;20023;-55
2022/10/13 05:33:44;;;;;;;4.05;2.15;;;;;;;18.43;51.21;101667.44;5124390;28;20028;-52
2022/10/13 05:36:15;;;;;;;3.58;2.85;;;;;;;18.42;50.94;101673.84;5124191;28;20029;-53
2022/10/13 05:38:41;;;;;;;3.03;2.15;;;;;;;18.42;51.35;101666.59;5123852;28;20015;-53
2022/10/13 05:41:08;;;;;;;4.35;2.53;;;;;;;18.32;51.23;101646.94;5129615;27;20061;-56
2022/10/13 05:43:33;;;;;;;2.88;2.40;;;;;;;18.42;51.10;101660.38;5144735;27;20019;-54
2022/10/13 05:45:59;;;;;;;3.10;2.28;;;;;;;18.40;51.24;101657.00;5145134;27;20033;-55
2022/10/13 05:48:25;;;;;;;2.30;2.05;;;;;;;18.42;51.49;101673.84;5144815;27;20058;-54
2022/10/13 05:50:51;;;;;;;3.30;2.25;;;;;;;18.40;51.44;101676.69;5144310;27;20023;-54
2022/10/13 05:53:16;;;;;;;2.47;2.17;;;;;;;18.41;51.27;101675.69;5144170;27;20047;-56
2022/10/13 05:55:41;;;;;;;2.65;2.30;;;;;;;18.42;51.43;101690.00;5144443;27;20039;-52
2022/10/13 05:58:07;;;;;;;3.05;2.17;;;;;;;18.42;51.40;101692.69;5143264;27;20035;-54
2022/10/13 06:00:32;;;;;;;3.47;2.90;;;;;;;18.29;51.50;101662.53;5144804;27;20023;-51
2022/10/13 06:03:11;;;;;;;3.65;2.30;;;;;;;18.41;51.24;101688.31;5144625;27;20054;-55
2022/10/13 06:05:37;;;;;;;;;;;;;;;18.42;51.30;101684.59;5145274;27;20061;-51
2022/10/13 06:08:02;;;;;;;4.28;2.85;;;;;;;18.31;51.31;101674.88;5144156;28;19907;-52
2022/10/13 06:10:28;;;;;;;2.80;2.45;;;;;;;18.41;51.30;101682.91;5143933;28;20038;-55
2022/10/13 06:12:53;;;;;;;2.65;2.20;;;;;;;18.37;51.72;101668.91;5144518;27;20507;-51
2022/10/13 06:15:18;;;;;;;3.80;2.50;;;;;;;18.37;51.51;101670.75;5134916;27;20024;-55
2022/10/13 06:17:43;;;;;;;2.65;2.08;;;;;;;18.40;51.61;101670.47;5123853;28;20036;-53
2022/10/13 06:20:09;;;;;;;4.80;2.40;;;;;;;18.40;51.23;101667.75;5123958;28;20034;-53
2022/10/13 06:22:35;;;;;;;2.88;2.45;;;;;;;18.39;51.43;101664.22;5123461;28;20380;-53
2022/10/13 06:25:01;;;;;;;3.00;2.45;;;;;;;18.38;51.62;101651.75;5123519;28;20041;-55
2022/10/13 06:27:26;;;;;;;4.53;2.53;;;;;;;18.34;51.68;101642.25;5126543;28;20036;-55
2022/10/13 06:29:52;;;;;;;3.40;2.42;;;;;;;18.38;51.63;101640.97;5128003;28;20038;-53
2022/10/13 06:32:17;;;;;;;4.55;2.63;;;;;;;18.40;51.48;101646.22;5127617;28;20023;-54
2022/10/13 06:34:42;;;;;;;3.53;2.10;;;;;;;18.38;51.72;101646.34;5127857;27;20044;-54
2022/10/13 06:37:08;;;;;;;2.95;2.20;;;;;;;18.36;51.80;101651.06;5127589;28;20032;-50
2022/10/13 06:39:34;;;;;;;2.35;2.10;;;;;;;18.39;51.56;101648.06;5127500;28;20028;-51
2022/10/13 06:41:59;;;;;;;3.42;2.28;;;;;;;18.27;51.54;101625.03;5140358;27;20097;-54
2022/10/13 06:44:24;;;;;;;3.25;2.50;;;;;;;18.42;51.64;101646.91;5148283;27;20054;-51
2022/10/13 06:46:49;;;;;;;2.92;2.28;;;;;;;18.41;51.44;101629.91;5148240;27;20110;-49
2022/10/13 06:49:15;;;;;;;3.08;2.28;;;;;;;18.43;51.81;101635.13;5148514;27;20023;-53
2022/10/13 06:51:40;;;;;;;2.80;2.35;;;;;;;18.42;51.75;101626.22;5147656;27;20023;-52
2022/10/13 06:54:06;;;;;;;2.97;2.60;;;;;;;18.42;51.97;101620.84;5147783;27;20069;-54
2022/10/13 06:56:31;;;;;;;4.03;2.50;;;;;;;18.41;51.88;101627.22;5148203;27;20365;-53
2022/10/13 06:58:56;;;;;;;4.97;2.47;;;;;;;18.42;51.62;101644.22;5147997;27;20034;-52
2022/10/13 07:01:21;;;;;;;2.90;2.60;;;;;;;18.28;51.75;101620.47;5147701;27;20051;-53
2022/10/13 07:03:50;;;;;;;3.10;2.72;;;;;;;18.34;51.84;101631.50;5138855;27;20030;-55
2022/10/13 07:06:15;;;;;;;3.78;2.88;;;;;;;18.42;51.94;101633.44;5127241;28;20027;-51
2022/10/13 07:08:40;;;;;;;3.55;2.65;;;;;;;18.35;51.64;101630.53;5138150;27;20027;-55
2022/10/13 07:11:14;;;;;;;5.15;2.83;;;;;;;18.42;51.90;101642.38;5147729;27;20436;-55
2022/10/13 07:13:40;;;;;;;3.28;2.70;;;;;;;18.43;51.66;101641.38;5147636;27;20043;-54
2022/10/13 07:16:07;;;;;;;3.35;3.00;;;;;;;18.37;51.86;101615.06;5147992;27;20037;-54
2022/10/13 07:18:32;;;;;;;2.85;2.55;;;;;;;18.44;51.79;101629.63;5147740;27;20031;-55
2022/10/13 07:20:58;;;;;;;3.95;2.67;;;;;;;18.44;51.52;101632.31;5147256;27;20062;-55
2022/10/13 07:23:24;;;;;;;3.25;2.67;;;;;;;18.46;51.83;101618.69;5147531;27;20023;-55
2022/10/13 07:25:49;;;;;;;3.95;2.47;;;;;;;18.46;51.54;101627.63;5147638;27;20054;-55
2022/10/13 07:28:15;;;;;;;3.35;2.67;;;;;;;18.46;51.92;101635.69;5147506;27;20075;-52
2022/10/13 07:30:40;;;;;;;3.90;3.00;;;;;;;18.45;51.27;101644.78;5147403;27;20034;-54
2022/10/13 07:33:05;;;;;;;4.95;2.80;;;;;;;18.45;51.66;101652.00;5144442;27;20083;-52
2022/10/13 07:35:31;;;;;;;4.53;2.85;;;;;;;18.45;51.59;101650.16;5126601;27;20244;-52
2022/10/13 07:37:56;;;;;;;3.35;2.97;;;;;;;18.42;51.46;101637.00;5125618;28;20070;-55
2022/10/13 07:40:21;;;;;;;6.70;3.05;;;;;;;18.46;51.51;101651.00;5126370;28;20030;-56
2022/10/13 07:42:46;;;;;;;5.05;2.60;;;;;;;18.46;51.67;101649.16;5146283;27;20059;-56
2022/10/13 07:45:12;;;;;;;4.90;2.67;;;;;;;18.47;51.60;101645.47;5147163;27;20086;-56
2022/10/13 07:47:37;;;;;;;3.00;2.60;;;;;;;18.47;51.44;101640.06;5145632;27;20027;-56
2022/10/13 07:50:03;;;;;;;3.85;2.63;;;;;;;18.39;51.51;101621.16;5147055;27;20481;-56
2022/10/13 07:52:28;;;;;;;3.33;2.53;;;;;;;18.51;51.39;101639.78;5146269;27;20057;-55
2022/10/13 07:54:53;;;;;;;4.20;2.58;;;;;;;18.49;51.48;101638.09;5147020;27;20054;-56
2022/10/13 07:57:18;;;;;;;3.33;2.83;;;;;;;18.50;51.39;101638.94;5146711;27;20095;-56
2022/10/13 07:59:44;;;;;;;3.22;2.35;;;;;;;18.45;51.45;101630.47;5146805;27;20031;-55
2022/10/13 08:02:09;;;;;;;5.55;2.33;;;;;;;18.46;51.54;101633.00;5147019;27;20527;-54
2022/10/13 08:04:35;;;;;;;2.78;2.58;;;;;;;18.50;51.55;101636.25;5129324;27;20407;-55
2022/10/13 08:07:01;;;;;;;3.63;2.47;;;;;;;18.49;51.39;101638.09;5125928;28;20059;-56
2022/10/13 08:09:27;;;;;;;4.18;2.42;;;;;;;18.53;51.22;101637.81;5143743;27;20177;-53
2022/10/13 08:11:52;;;;;;;5.85;3.53;;;;;;;18.53;51.45;101638.66;5146551;27;20471;-56
2022/10/13 08:14:18;;;;;;;2.67;2.30;;;;;;;18.52;51.54;101639.66;5146439;27;20027;-53
2022/10/13 08:16:44;;;;;;;4.00;2.65;;;;;;;18.53;50.95;101635.97;5146514;27;20031;-56
2022/10/13 08:19:11;;;;;;;3.40;2.25;;;;;;;18.55;51.20;101647.41;5146855;27;20027;-56
2022/10/13 08:21:37;;;;;;;3.22;2.45;;;;;;;18.56;51.09;101642.88;5145952;27;20034;-56
2022/10/13 08:24:03;;;;;;;3.30;2.50;;;;;;;18.58;51.11;101643.59;5146788;27;20011;-55
2022/10/13 08:26:29;;;;;;;3.55;2.55;;;;;;;18.58;51.26;101640.91;5146361;27;20031;-56
2022/10/13 08:28:54;;;;;;;3.28;2.35;;;;;;;18.57;51.15;101645.44;5146398;27;20049;-56
2022/10/13 08:31:19;;;;;;;4.43;2.83;;;;;;;18.57;51.05;101641.91;5146296;27;20015;-56
2022/10/13 08:33:46;;;;;;;4.63;2.58;;;;;;;18.56;51.29;101640.19;5145331;27;20053;-56
2022/10/13 08:36:13;;;;;;;3.72;2.13;;;;;;;18.50;51.12;101636.25;5129705;27;20048;-54
2022/10/13 08:38:38;;;;;;;3.28;2.25;;;;;;;18.53;51.58;101635.97;5126057;27;20047;-55
2022/10/13 08:41:14;;;;;;;3.42;2.28;;;;;;;18.52;51.14;101645.06;5144617;27;20035;-56
2022/10/13 08:43:40;;;;;;;3.05;2.65;;;;;;;18.52;51.33;101636.09;5145039;27;20047;-56
2022/10/13 08:46:05;;;;;;;3.72;2.85;;;;;;;18.51;51.28;101643.34;5146198;27;20027;-55
2022/10/13 08:48:32;;;;;;;3.10;2.63;;;;;;;18.50;51.34;101647.03;5144267;27;20038;-54
2022/10/13 08:51:00;;;;;;;3.55;2.42;;;;;;;18.49;51.16;101646.19;5144995;27;20035;-53
2022/10/13 08:53:33;;;;;;;4.30;2.17;;;;;;;18.48;51.50;101641.78;5145340;27;20114;-56
2022/10/13 08:56:09;;;;;;;3.08;2.50;;;;;;;18.48;51.06;101641.78;5144651;27;20047;-55
2022/10/13 08:58:38;;;;;;;4.55;2.60;;;;;;;18.49;51.48;101640.78;5144207;27;20031;-54
2022/10/13 09:01:11;;;;;;;4.93;2.63;;;;;;;18.48;51.21;101643.66;5145448;27;20031;-53
2022/10/13 09:03:55;;;;;;;4.05;2.53;;;;;;;18.48;51.34;101646.34;5133710;27;20342;-55
2022/10/13 09:06:37;;;;;;;3.15;2.47;;;;;;;18.47;51.11;101640.06;5123952;27;20062;-54
2022/10/13 09:09:07;;;;;;;3.67;2.50;;;;;;;18.49;51.18;101631.88;5137437;27;20031;-54
2022/10/13 09:11:38;;;;;;;3.22;2.55;;;;;;;18.49;51.42;101632.72;5144113;27;20392;-54
2022/10/13 09:14:10;;;;;;;3.92;2.65;;;;;;;18.49;51.25;101635.41;5133013;27;20542;-55
2022/10/13 09:16:37;;;;;;;4.00;2.35;;;;;;;18.50;51.43;101636.25;5143650;27;20046;-54
2022/10/13 09:19:18;;;;;;;5.68;2.70;;;;;;;18.52;51.44;101636.97;5144572;27;20038;-55
2022/10/13 09:21:44;;;;;;;3.42;2.40;;;;;;;18.53;51.55;101641.34;5144182;27;20027;-54
2022/10/13 09:24:15;;;;;;;4.40;3.30;;;;;;;18.56;51.58;101642.88;5145174;27;20031;-53
2022/10/13 09:26:41;;;;;;;2.53;2.10;;;;;;;18.54;51.43;101637.66;5145111;27;20098;-56
2022/10/13 09:29:23;;;;;;;3.78;2.60;;;;;;;18.47;51.45;101629.31;5145178;27;20047;-57
2022/10/13 09:31:49;;;;;;;3.67;2.60;;;;;;;18.56;51.40;101634.81;5144799;27;20027;-57
2022/10/13 09:34:17;;;;;;;3.45;2.70;;;;;;;18.58;51.49;101630.97;5143984;27;20033;-55
2022/10/13 09:37:02;;;;;;;4.32;2.38;;;;;;;18.56;51.48;101621.34;5144290;27;20402;-57
2022/10/13 09:39:29;;;;;;;3.10;2.13;;;;;;;18.63;51.63;101614.38;5128866;27;20031;-54
2022/10/13 09:42:24;;;;;;;3.08;2.33;;;;;;;18.64;51.45;101616.91;5124146;27;20028;-56
2022/10/13 09:45:15;;;;;;;4.63;3.13;;;;;;;18.67;51.25;101621.16;5123068;28;20051;-57
2022/10/13 09:47:48;;;;;;;3.05;2.50;;;;;;;18.62;51.38;101609.97;5122699;28;20015;-55
2022/10/13 09:50:15;;;;;;;5.07;2.55;;;;;;;18.68;51.31;101618.28;5123612;28;20035;-53
2022/10/13 09:52:41;;;;;;;2.75;2.42;;;;;;;18.64;51.15;101614.22;5123572;28;20027;-55
2022/10/13 09:55:27;;;;;;;3.70;2.58;;;;;;;18.72;51.08;101621.56;5122417;28;20765;-51
2022/10/13 09:57:54;;;;;;;2.55;2.20;;;;;;;18.73;51.33;101624.13;5122630;28;20019;-55
2022/10/13 10:00:25;;;;;;;3.63;2.65;;;;;;;18.76;51.15;101622.13;5122458;28;20024;-53
2022/10/13 10:02:55;;;;;;;3.55;2.25;;;;;;;18.71;51.26;101609.13;5125719;27;20019;-55
2022/10/13 10:05:52;;;;;;;2.55;2.30;;;;;;;18.80;51.45;101621.69;5142788;27;20087;-53
2022/10/13 10:08:55;;;;;;;3.20;2.30;;;;;;;18.84;51.32;101624.91;5143983;27;20499;-52
2022/10/13 10:11:28;;;;;;;3.83;2.40;;;;;;;18.86;51.18;101617.53;5144460;28;20051;-53
2022/10/13 10:13:55;;;;;;;2.60;2.25;;;;;;;18.86;51.25;101618.41;5143168;28;20095;-52
2022/10/13 10:16:30;;;;;;;2.25;1.98;;;;;;;18.87;51.00;101614.69;5124643;28;20087;-54
2022/10/13 10:18:58;;;;;;;3.35;2.30;;;;;;;18.88;51.05;101619.06;5123809;28;20043;-56
2022/10/13 10:21:38;;;;;;;2.35;1.90;;;;;;;18.89;51.07;101625.31;5129649;28;20068;-57
2022/10/13 10:24:18;;;;;;;3.25;2.35;;;;;;;18.88;51.07;101618.22;5131344;28;20012;-57
2022/10/13 10:26:54;;;;;;;2.70;2.50;;;;;;;18.88;50.76;101620.94;5123888;28;20016;-57
2022/10/13 10:29:37;;;;;;;2.20;2.00;;;;;;;18.88;50.97;101623.63;5122617;28;20019;-57
2022/10/13 10:32:30;;;;;;;3.78;2.65;;;;;;;18.86;51.11;101617.53;5123399;28;20016;-58
2022/10/13 10:35:01;;;;;;;3.90;2.53;;;;;;;18.85;50.92;101621.22;5122477;28;20044;-56
2022/10/13 10:37:32;;;;;;;3.40;2.15;;;;;;;18.85;51.07;101619.38;5121668;28;20031;-55
2022/10/13 10:40:09;;;;;;;2.95;2.25;;;;;;;18.84;51.15;101615.00;5123216;28;20023;-57
2022/10/13 10:43:18;;;;;;;2.88;2.45;;;;;;;18.85;51.26;101622.06;5122400;28;20027;-57
2022/10/13 10:45:45;;;;;;;2.63;1.95;;;;;;;18.81;51.09;101604.50;5122778;28;20024;-57
2022/10/13 10:48:23;;;;;;;2.78;2.38;;;;;;;18.83;51.00;101610.59;5123346;28;20108;-56
2022/10/13 10:50:52;;;;;;;2.53;2.33;;;;;;;18.84;51.02;101608.75;5123206;28;20484;-55
2022/10/13 10:53:29;;;;;;;3.28;2.55;;;;;;;18.86;51.00;101604.03;5121649;28;20876;-56
2022/10/13 10:56:15;;;;;;;3.25;2.22;;;;;;;18.87;51.06;101593.13;5122609;28;20032;-55
2022/10/13 10:58:48;;;;;;;4.25;2.58;;;;;;;18.88;50.97;101583.19;5122626;28;20095;-56
2022/10/13 11:01:24;;;;;;;3.20;2.00;;;;;;;18.91;51.16;101586.44;5123266;28;20031;-57
2022/10/13 11:04:01;;;;;;;2.92;2.20;;;;;;;18.93;51.03;101584.44;5121998;28;20039;-57
2022/10/13 11:06:34;;;;;;;4.20;2.40;;;;;;;18.96;51.20;101583.28;5104583;28;20089;-54
2022/10/13 11:09:00;;;;;;;2.67;2.17;;;;;;;18.96;51.12;101570.66;5136832;28;20019;-56
2022/10/13 11:11:25;;;;;;;2.47;2.08;;;;;;;19.00;51.29;101575.75;5142507;28;20027;-54
2022/10/13 11:14:06;;;;;;;4.35;2.33;;;;;;;19.03;51.03;101570.91;5145646;27;20227;-55
2022/10/13 11:16:39;;;;;;;3.17;2.50;;;;;;;19.08;51.04;101573.16;5127891;27;20027;-56
2022/10/13 11:19:07;;;;;;;3.88;2.05;;;;;;;19.09;51.27;101566.75;5129752;27;20026;-54
2022/10/13 11:21:51;;;;;;;3.00;2.10;;;;;;;19.12;51.38;101563.75;5136848;27;20057;-57
2022/10/13 11:24:38;;;;;;;2.35;2.00;;;;;;;19.14;51.29;101567.13;5137596;27;20270;-56
2022/10/13 11:27:15;;;;;;;2.42;2.22;;;;;;;19.16;51.07;101557.06;5136028;27;20023;-57
2022/10/13 11:30:01;;;;;;;3.22;2.33;;;;;;;19.17;51.26;101556.88;5135728;27;20016;-56
2022/10/13 11:32:29;;;;;;;3.10;2.53;;;;;;;19.18;51.07;101550.47;5126749;28;20135;-56
2022/10/13 11:35:04;;;;;;;2.35;2.15;;;;;;;19.19;51.06;101549.47;5136260;27;20015;-57